sensor_id;sensor_type;location;lat;lon;timestamp;P1;durP1;ratioP1;P2;durP2;ratioP2
64842;SDS011;51310;52.198;5.422;2022-08-19T00:01:54;11.23;;;9.00;;
64842;SDS011;51310;52.198;5.422;2022-08-19T00:04:23;9.68;;;8.20;;
64842;SDS011;51310;52.198;5.422;2022-08-19T00:06:57;11.27;;;8.57;;
64842;SDS011;51310;52.198;5.422;2022-08-19T00:09:24;9.88;;;8.35;;
64842;SDS011;51310;52.198;5.422;2022-08-19T00:11:51;11.60;;;9.10;;
64842;SDS011;51310;52.198;5.422;2022-08-19T00:14:20;13.05;;;8.82;;
64842;SDS011;51310;52.198;5.422;2022-08-19T00:16:49;12.75;;;9.02;;
64842;SDS011;51310;52.198;5.422;2022-08-19T00:19:19;13.70;;;8.95;;
64842;SDS011;51310;52.198;5.422;2022-08-19T00:21:45;11.50;;;8.93;;
64842;SDS011;51310;52.198;5.422;2022-08-19T00:24:13;13.40;;;9.03;;
64842;SDS011;51310;52.198;5.422;2022-08-19T00:26:40;12.18;;;8.65;;
64842;SDS011;51310;52.198;5.422;2022-08-19T00:29:09;13.20;;;9.20;;
64842;SDS011;51310;52.198;5.422;2022-08-19T00:31:38;11.23;;;9.10;;
64842;SDS011;51310;52.198;5.422;2022-08-19T00:34:06;13.30;;;9.73;;
64842;SDS011;51310;52.198;5.422;2022-08-19T00:36:32;16.73;;;10.93;;
64842;SDS011;51310;52.198;5.422;2022-08-19T00:38:58;15.25;;;11.10;;
64842;SDS011;51310;52.198;5.422;2022-08-19T00:41:25;17.80;;;10.70;;
64842;SDS011;51310;52.198;5.422;2022-08-19T00:44:06;16.73;;;10.90;;
64842;SDS011;51310;52.198;5.422;2022-08-19T00:46:45;13.85;;;9.98;;
64842;SDS011;51310;52.198;5.422;2022-08-19T00:49:15;13.30;;;10.48;;
64842;SDS011;51310;52.198;5.422;2022-08-19T00:51:50;15.83;;;11.20;;
64842;SDS011;51310;52.198;5.422;2022-08-19T00:54:25;17.05;;;11.38;;
64842;SDS011;51310;52.198;5.422;2022-08-19T00:56:53;14.00;;;10.57;;
64842;SDS011;51310;52.198;5.422;2022-08-19T00:59:19;12.47;;;10.03;;
64842;SDS011;51310;52.198;5.422;2022-08-19T01:01:46;14.45;;;10.70;;
64842;SDS011;51310;52.198;5.422;2022-08-19T01:04:12;11.93;;;10.18;;
64842;SDS011;51310;52.198;5.422;2022-08-19T01:06:39;15.18;;;10.52;;
64842;SDS011;51310;52.198;5.422;2022-08-19T01:09:06;12.27;;;9.98;;
64842;SDS011;51310;52.198;5.422;2022-08-19T01:11:34;18.73;;;10.95;;
64842;SDS011;51310;52.198;5.422;2022-08-19T01:14:06;13.70;;;10.57;;
64842;SDS011;51310;52.198;5.422;2022-08-19T01:16:34;14.50;;;9.90;;
64842;SDS011;51310;52.198;5.422;2022-08-19T01:19:03;11.98;;;9.65;;
64842;SDS011;51310;52.198;5.422;2022-08-19T01:22:02;14.00;;;10.43;;
64842;SDS011;51310;52.198;5.422;2022-08-19T01:24:41;14.80;;;10.82;;
64842;SDS011;51310;52.198;5.422;2022-08-19T01:27:08;14.30;;;10.32;;
64842;SDS011;51310;52.198;5.422;2022-08-19T01:29:34;16.65;;;11.25;;
64842;SDS011;51310;52.198;5.422;2022-08-19T01:32:07;15.30;;;11.73;;
64842;SDS011;51310;52.198;5.422;2022-08-19T01:34:39;15.13;;;11.07;;
64842;SDS011;51310;52.198;5.422;2022-08-19T01:37:07;16.55;;;11.13;;
64842;SDS011;51310;52.198;5.422;2022-08-19T01:39:37;16.05;;;12.00;;
64842;SDS011;51310;52.198;5.422;2022-08-19T01:42:06;17.27;;;12.13;;
64842;SDS011;51310;52.198;5.422;2022-08-19T01:44:35;16.00;;;12.40;;
64842;SDS011;51310;52.198;5.422;2022-08-19T01:47:03;18.30;;;11.35;;
64842;SDS011;51310;52.198;5.422;2022-08-19T01:49:29;14.82;;;11.85;;
64842;SDS011;51310;52.198;5.422;2022-08-19T01:51:56;19.95;;;12.52;;
64842;SDS011;51310;52.198;5.422;2022-08-19T01:54:23;14.98;;;11.70;;
64842;SDS011;51310;52.198;5.422;2022-08-19T01:56:53;16.73;;;11.63;;
64842;SDS011;51310;52.198;5.422;2022-08-19T01:59:30;17.50;;;12.15;;
64842;SDS011;51310;52.198;5.422;2022-08-19T02:01:58;14.75;;;11.13;;
64842;SDS011;51310;52.198;5.422;2022-08-19T02:04:23;15.17;;;11.53;;
64842;SDS011;51310;52.198;5.422;2022-08-19T02:06:50;15.85;;;11.70;;
64842;SDS011;51310;52.198;5.422;2022-08-19T02:09:16;16.17;;;11.90;;
64842;SDS011;51310;52.198;5.422;2022-08-19T02:11:42;14.60;;;11.63;;
64842;SDS011;51310;52.198;5.422;2022-08-19T02:14:08;18.25;;;12.43;;
64842;SDS011;51310;52.198;5.422;2022-08-19T02:16:35;16.77;;;12.02;;
64842;SDS011;51310;52.198;5.422;2022-08-19T02:19:03;17.33;;;12.85;;
64842;SDS011;51310;52.198;5.422;2022-08-19T02:21:29;16.35;;;12.18;;
64842;SDS011;51310;52.198;5.422;2022-08-19T02:23:56;17.75;;;11.95;;
64842;SDS011;51310;52.198;5.422;2022-08-19T02:26:22;16.67;;;12.15;;
64842;SDS011;51310;52.198;5.422;2022-08-19T02:28:51;18.83;;;12.47;;
64842;SDS011;51310;52.198;5.422;2022-08-19T02:31:20;15.70;;;12.35;;
64842;SDS011;51310;52.198;5.422;2022-08-19T02:33:49;16.48;;;12.55;;
64842;SDS011;51310;52.198;5.422;2022-08-19T02:36:16;16.95;;;12.48;;
64842;SDS011;51310;52.198;5.422;2022-08-19T02:38:43;16.88;;;12.85;;
64842;SDS011;51310;52.198;5.422;2022-08-19T02:41:17;18.63;;;13.63;;
64842;SDS011;51310;52.198;5.422;2022-08-19T02:43:50;17.67;;;13.15;;
64842;SDS011;51310;52.198;5.422;2022-08-19T02:46:18;20.15;;;14.07;;
64842;SDS011;51310;52.198;5.422;2022-08-19T02:48:52;19.83;;;14.33;;
64842;SDS011;51310;52.198;5.422;2022-08-19T02:51:42;18.27;;;13.88;;
64842;SDS011;51310;52.198;5.422;2022-08-19T02:54:11;24.20;;;14.90;;
64842;SDS011;51310;52.198;5.422;2022-08-19T02:56:39;20.75;;;14.48;;
64842;SDS011;51310;52.198;5.422;2022-08-19T02:59:08;18.92;;;14.43;;
64842;SDS011;51310;52.198;5.422;2022-08-19T03:01:35;20.00;;;13.73;;
64842;SDS011;51310;52.198;5.422;2022-08-19T03:04:03;16.87;;;13.03;;
64842;SDS011;51310;52.198;5.422;2022-08-19T03:06:31;19.73;;;13.80;;
64842;SDS011;51310;52.198;5.422;2022-08-19T03:09:00;19.67;;;14.35;;
64842;SDS011;51310;52.198;5.422;2022-08-19T03:11:27;20.02;;;14.55;;
64842;SDS011;51310;52.198;5.422;2022-08-19T03:13:57;18.90;;;14.43;;
64842;SDS011;51310;52.198;5.422;2022-08-19T03:16:26;19.77;;;14.87;;
64842;SDS011;51310;52.198;5.422;2022-08-19T03:18:55;20.80;;;14.88;;
64842;SDS011;51310;52.198;5.422;2022-08-19T03:21:26;19.60;;;14.57;;
64842;SDS011;51310;52.198;5.422;2022-08-19T03:23:58;19.17;;;14.50;;
64842;SDS011;51310;52.198;5.422;2022-08-19T03:26:32;20.60;;;15.20;;
64842;SDS011;51310;52.198;5.422;2022-08-19T03:29:03;21.67;;;14.88;;
64842;SDS011;51310;52.198;5.422;2022-08-19T03:31:30;23.52;;;15.75;;
64842;SDS011;51310;52.198;5.422;2022-08-19T03:33:57;25.42;;;17.98;;
64842;SDS011;51310;52.198;5.422;2022-08-19T03:36:24;24.10;;;16.90;;
64842;SDS011;51310;52.198;5.422;2022-08-19T03:38:53;23.17;;;14.87;;
64842;SDS011;51310;52.198;5.422;2022-08-19T03:41:24;20.63;;;15.07;;
64842;SDS011;51310;52.198;5.422;2022-08-19T03:43:57;20.63;;;14.68;;
64842;SDS011;51310;52.198;5.422;2022-08-19T03:46:25;20.63;;;14.60;;
64842;SDS011;51310;52.198;5.422;2022-08-19T03:48:56;22.02;;;15.43;;
64842;SDS011;51310;52.198;5.422;2022-08-19T03:51:32;22.40;;;15.73;;
64842;SDS011;51310;52.198;5.422;2022-08-19T03:54:04;22.85;;;14.95;;
64842;SDS011;51310;52.198;5.422;2022-08-19T03:56:37;22.45;;;15.20;;
64842;SDS011;51310;52.198;5.422;2022-08-19T03:59:09;20.17;;;15.23;;
64842;SDS011;51310;52.198;5.422;2022-08-19T04:01:55;20.23;;;15.07;;
64842;SDS011;51310;52.198;5.422;2022-08-19T04:04:26;22.88;;;15.18;;
64842;SDS011;51310;52.198;5.422;2022-08-19T04:06:53;24.70;;;16.20;;
64842;SDS011;51310;52.198;5.422;2022-08-19T04:09:20;22.00;;;16.48;;
64842;SDS011;51310;52.198;5.422;2022-08-19T04:11:48;22.35;;;15.52;;
64842;SDS011;51310;52.198;5.422;2022-08-19T04:14:22;22.10;;;15.27;;
64842;SDS011;51310;52.198;5.422;2022-08-19T04:16:55;25.88;;;16.98;;
64842;SDS011;51310;52.198;5.422;2022-08-19T04:19:23;25.07;;;16.03;;
64842;SDS011;51310;52.198;5.422;2022-08-19T04:21:51;24.35;;;16.77;;
64842;SDS011;51310;52.198;5.422;2022-08-19T04:24:19;26.55;;;17.60;;
64842;SDS011;51310;52.198;5.422;2022-08-19T04:26:47;23.90;;;16.02;;
64842;SDS011;51310;52.198;5.422;2022-08-19T04:29:14;24.13;;;16.40;;
64842;SDS011;51310;52.198;5.422;2022-08-19T04:31:46;24.73;;;16.58;;
64842;SDS011;51310;52.198;5.422;2022-08-19T04:34:15;24.83;;;17.58;;
64842;SDS011;51310;52.198;5.422;2022-08-19T04:36:47;25.60;;;17.30;;
64842;SDS011;51310;52.198;5.422;2022-08-19T04:39:16;27.07;;;17.40;;
64842;SDS011;51310;52.198;5.422;2022-08-19T04:41:47;25.07;;;17.17;;
64842;SDS011;51310;52.198;5.422;2022-08-19T04:44:32;27.42;;;17.58;;
64842;SDS011;51310;52.198;5.422;2022-08-19T04:47:00;27.02;;;16.67;;
64842;SDS011;51310;52.198;5.422;2022-08-19T04:49:31;27.92;;;16.67;;
64842;SDS011;51310;52.198;5.422;2022-08-19T04:51:57;27.17;;;16.88;;
64842;SDS011;51310;52.198;5.422;2022-08-19T04:54:24;27.65;;;16.40;;
64842;SDS011;51310;52.198;5.422;2022-08-19T04:56:51;24.75;;;15.98;;
64842;SDS011;51310;52.198;5.422;2022-08-19T04:59:18;26.45;;;15.90;;
64842;SDS011;51310;52.198;5.422;2022-08-19T05:01:45;26.27;;;14.50;;
64842;SDS011;51310;52.198;5.422;2022-08-19T05:04:15;23.90;;;12.75;;
64842;SDS011;51310;52.198;5.422;2022-08-19T05:06:48;19.58;;;12.23;;
64842;SDS011;51310;52.198;5.422;2022-08-19T05:09:16;16.75;;;11.38;;
64842;SDS011;51310;52.198;5.422;2022-08-19T05:11:42;16.25;;;11.10;;
64842;SDS011;51310;52.198;5.422;2022-08-19T05:14:09;18.25;;;11.45;;
64842;SDS011;51310;52.198;5.422;2022-08-19T05:16:37;15.73;;;10.98;;
64842;SDS011;51310;52.198;5.422;2022-08-19T05:19:04;16.73;;;11.00;;
64842;SDS011;51310;52.198;5.422;2022-08-19T05:21:49;18.73;;;11.98;;
64842;SDS011;51310;52.198;5.422;2022-08-19T05:24:34;16.95;;;12.07;;
64842;SDS011;51310;52.198;5.422;2022-08-19T05:27:02;18.05;;;11.88;;
64842;SDS011;51310;52.198;5.422;2022-08-19T05:29:30;18.23;;;12.07;;
64842;SDS011;51310;52.198;5.422;2022-08-19T05:32:00;21.47;;;13.83;;
64842;SDS011;51310;52.198;5.422;2022-08-19T05:34:33;18.65;;;12.05;;
64842;SDS011;51310;52.198;5.422;2022-08-19T05:37:01;18.27;;;12.30;;
64842;SDS011;51310;52.198;5.422;2022-08-19T05:39:30;18.98;;;12.50;;
64842;SDS011;51310;52.198;5.422;2022-08-19T05:42:04;19.15;;;12.50;;
64842;SDS011;51310;52.198;5.422;2022-08-19T05:44:35;20.88;;;13.23;;
64842;SDS011;51310;52.198;5.422;2022-08-19T05:47:08;18.83;;;13.73;;
64842;SDS011;51310;52.198;5.422;2022-08-19T05:49:35;19.73;;;13.02;;
64842;SDS011;51310;52.198;5.422;2022-08-19T05:52:06;26.17;;;15.40;;
64842;SDS011;51310;52.198;5.422;2022-08-19T05:54:39;24.02;;;16.05;;
64842;SDS011;51310;52.198;5.422;2022-08-19T05:57:06;24.13;;;16.02;;
64842;SDS011;51310;52.198;5.422;2022-08-19T05:59:34;24.80;;;16.48;;
64842;SDS011;51310;52.198;5.422;2022-08-19T06:02:00;29.75;;;18.85;;
64842;SDS011;51310;52.198;5.422;2022-08-19T06:04:27;31.40;;;19.00;;
64842;SDS011;51310;52.198;5.422;2022-08-19T06:06:54;35.28;;;21.92;;
64842;SDS011;51310;52.198;5.422;2022-08-19T06:09:21;46.60;;;26.40;;
64842;SDS011;51310;52.198;5.422;2022-08-19T06:11:50;47.78;;;25.35;;
64842;SDS011;51310;52.198;5.422;2022-08-19T06:14:22;50.40;;;27.63;;
64842;SDS011;51310;52.198;5.422;2022-08-19T06:16:52;60.23;;;29.07;;
64842;SDS011;51310;52.198;5.422;2022-08-19T06:19:19;66.55;;;31.75;;
64842;SDS011;51310;52.198;5.422;2022-08-19T06:21:49;66.20;;;32.43;;
64842;SDS011;51310;52.198;5.422;2022-08-19T06:24:18;71.60;;;33.72;;
64842;SDS011;51310;52.198;5.422;2022-08-19T06:26:49;72.22;;;33.28;;
64842;SDS011;51310;52.198;5.422;2022-08-19T06:29:18;66.60;;;33.05;;
64842;SDS011;51310;52.198;5.422;2022-08-19T06:31:49;63.05;;;31.30;;
64842;SDS011;51310;52.198;5.422;2022-08-19T06:34:18;65.75;;;31.92;;
64842;SDS011;51310;52.198;5.422;2022-08-19T06:36:45;60.75;;;30.85;;
64842;SDS011;51310;52.198;5.422;2022-08-19T06:39:17;57.55;;;30.33;;
64842;SDS011;51310;52.198;5.422;2022-08-19T06:41:51;54.20;;;28.30;;
64842;SDS011;51310;52.198;5.422;2022-08-19T06:44:25;57.25;;;30.00;;
64842;SDS011;51310;52.198;5.422;2022-08-19T06:47:01;54.85;;;29.65;;
64842;SDS011;51310;52.198;5.422;2022-08-19T06:49:34;59.53;;;30.70;;
64842;SDS011;51310;52.198;5.422;2022-08-19T06:52:01;56.38;;;29.35;;
64842;SDS011;51310;52.198;5.422;2022-08-19T06:54:29;54.85;;;29.35;;
64842;SDS011;51310;52.198;5.422;2022-08-19T06:56:56;58.72;;;30.50;;
64842;SDS011;51310;52.198;5.422;2022-08-19T06:59:27;66.17;;;30.27;;
64842;SDS011;51310;52.198;5.422;2022-08-19T07:01:57;67.40;;;31.15;;
64842;SDS011;51310;52.198;5.422;2022-08-19T07:04:30;66.28;;;33.45;;
64842;SDS011;51310;52.198;5.422;2022-08-19T07:06:59;63.47;;;32.03;;
64842;SDS011;51310;52.198;5.422;2022-08-19T07:09:35;65.07;;;30.33;;
64842;SDS011;51310;52.198;5.422;2022-08-19T07:12:07;62.08;;;31.55;;
64842;SDS011;51310;52.198;5.422;2022-08-19T07:14:36;67.72;;;31.73;;
64842;SDS011;51310;52.198;5.422;2022-08-19T07:17:04;65.88;;;31.50;;
64842;SDS011;51310;52.198;5.422;2022-08-19T07:19:35;60.10;;;32.22;;
64842;SDS011;51310;52.198;5.422;2022-08-19T07:22:04;61.45;;;30.77;;
64842;SDS011;51310;52.198;5.422;2022-08-19T07:24:32;65.30;;;32.05;;
64842;SDS011;51310;52.198;5.422;2022-08-19T07:27:00;66.23;;;33.37;;
64842;SDS011;51310;52.198;5.422;2022-08-19T07:29:31;64.22;;;32.08;;
64842;SDS011;51310;52.198;5.422;2022-08-19T07:32:00;64.72;;;32.75;;
64842;SDS011;51310;52.198;5.422;2022-08-19T07:34:29;62.22;;;33.53;;
64842;SDS011;51310;52.198;5.422;2022-08-19T07:37:02;65.18;;;32.63;;
64842;SDS011;51310;52.198;5.422;2022-08-19T07:39:33;67.00;;;33.58;;
64842;SDS011;51310;52.198;5.422;2022-08-19T07:42:03;64.70;;;32.80;;
64842;SDS011;51310;52.198;5.422;2022-08-19T07:44:35;68.93;;;34.38;;
64842;SDS011;51310;52.198;5.422;2022-08-19T07:47:02;61.50;;;32.55;;
64842;SDS011;51310;52.198;5.422;2022-08-19T07:49:30;62.30;;;34.42;;
64842;SDS011;51310;52.198;5.422;2022-08-19T07:51:58;62.15;;;33.83;;
64842;SDS011;51310;52.198;5.422;2022-08-19T07:54:30;61.67;;;33.83;;
64842;SDS011;51310;52.198;5.422;2022-08-19T07:57:00;62.92;;;34.67;;
64842;SDS011;51310;52.198;5.422;2022-08-19T07:59:28;65.28;;;34.92;;
64842;SDS011;51310;52.198;5.422;2022-08-19T08:01:55;61.05;;;33.55;;
64842;SDS011;51310;52.198;5.422;2022-08-19T08:04:24;63.13;;;33.28;;
64842;SDS011;51310;52.198;5.422;2022-08-19T08:07:09;57.85;;;33.80;;
64842;SDS011;51310;52.198;5.422;2022-08-19T08:09:54;64.22;;;34.00;;
64842;SDS011;51310;52.198;5.422;2022-08-19T08:12:24;65.43;;;33.95;;
64842;SDS011;51310;52.198;5.422;2022-08-19T08:15:00;61.78;;;33.80;;
64842;SDS011;51310;52.198;5.422;2022-08-19T08:17:34;64.55;;;33.15;;
64842;SDS011;51310;52.198;5.422;2022-08-19T08:20:03;60.83;;;31.50;;
64842;SDS011;51310;52.198;5.422;2022-08-19T08:22:31;56.17;;;30.90;;
64842;SDS011;51310;52.198;5.422;2022-08-19T08:25:18;59.23;;;30.10;;
64842;SDS011;51310;52.198;5.422;2022-08-19T08:27:47;57.73;;;29.13;;
64842;SDS011;51310;52.198;5.422;2022-08-19T08:30:24;58.08;;;29.35;;
64842;SDS011;51310;52.198;5.422;2022-08-19T08:32:51;52.88;;;28.73;;
64842;SDS011;51310;52.198;5.422;2022-08-19T08:35:20;51.05;;;27.27;;
64842;SDS011;51310;52.198;5.422;2022-08-19T08:37:50;46.10;;;26.25;;
64842;SDS011;51310;52.198;5.422;2022-08-19T08:48:59;43.88;;;24.13;;
64842;SDS011;51310;52.198;5.422;2022-08-19T08:51:52;43.92;;;23.92;;
64842;SDS011;51310;52.198;5.422;2022-08-19T08:54:40;42.05;;;24.25;;
64842;SDS011;51310;52.198;5.422;2022-08-19T08:57:15;40.70;;;23.13;;
64842;SDS011;51310;52.198;5.422;2022-08-19T08:59:53;36.75;;;22.73;;
64842;SDS011;51310;52.198;5.422;2022-08-19T09:02:23;36.97;;;23.08;;
64842;SDS011;51310;52.198;5.422;2022-08-19T09:04:49;38.50;;;24.00;;
64842;SDS011;51310;52.198;5.422;2022-08-19T09:16:12;38.45;;;21.67;;
64842;SDS011;51310;52.198;5.422;2022-08-19T09:18:47;40.00;;;23.48;;
64842;SDS011;51310;52.198;5.422;2022-08-19T09:21:22;38.22;;;21.10;;
64842;SDS011;51310;52.198;5.422;2022-08-19T09:23:50;34.60;;;21.35;;
64842;SDS011;51310;52.198;5.422;2022-08-19T09:26:18;32.38;;;20.75;;
64842;SDS011;51310;52.198;5.422;2022-08-19T09:28:50;35.63;;;21.88;;
64842;SDS011;51310;52.198;5.422;2022-08-19T09:31:23;33.33;;;20.43;;
64842;SDS011;51310;52.198;5.422;2022-08-19T09:33:53;33.63;;;19.73;;
64842;SDS011;51310;52.198;5.422;2022-08-19T09:36:22;33.55;;;19.05;;
64842;SDS011;51310;52.198;5.422;2022-08-19T09:38:53;40.90;;;23.23;;
64842;SDS011;51310;52.198;5.422;2022-08-19T09:41:21;35.65;;;21.88;;
64842;SDS011;51310;52.198;5.422;2022-08-19T09:43:50;34.60;;;20.67;;
64842;SDS011;51310;52.198;5.422;2022-08-19T09:46:21;31.30;;;20.70;;
64842;SDS011;51310;52.198;5.422;2022-08-19T09:48:51;35.58;;;22.10;;
64842;SDS011;51310;52.198;5.422;2022-08-19T09:51:22;32.13;;;20.10;;
64842;SDS011;51310;52.198;5.422;2022-08-19T09:53:53;30.08;;;21.05;;
64842;SDS011;51310;52.198;5.422;2022-08-19T09:56:25;35.30;;;23.30;;
64842;SDS011;51310;52.198;5.422;2022-08-19T09:58:52;35.17;;;23.70;;
64842;SDS011;51310;52.198;5.422;2022-08-19T10:01:19;33.60;;;22.47;;
64842;SDS011;51310;52.198;5.422;2022-08-19T10:03:50;30.92;;;21.70;;
64842;SDS011;51310;52.198;5.422;2022-08-19T10:06:22;31.15;;;20.13;;
64842;SDS011;51310;52.198;5.422;2022-08-19T10:08:51;31.30;;;20.27;;
64842;SDS011;51310;52.198;5.422;2022-08-19T10:11:19;30.63;;;20.45;;
64842;SDS011;51310;52.198;5.422;2022-08-19T10:13:45;33.78;;;20.38;;
64842;SDS011;51310;52.198;5.422;2022-08-19T10:16:13;30.48;;;19.52;;
64842;SDS011;51310;52.198;5.422;2022-08-19T10:18:47;31.60;;;18.67;;
64842;SDS011;51310;52.198;5.422;2022-08-19T10:21:16;27.55;;;18.88;;
64842;SDS011;51310;52.198;5.422;2022-08-19T10:23:58;27.48;;;17.73;;
64842;SDS011;51310;52.198;5.422;2022-08-19T10:26:36;25.83;;;16.73;;
64842;SDS011;51310;52.198;5.422;2022-08-19T10:29:06;25.15;;;16.55;;
64842;SDS011;51310;52.198;5.422;2022-08-19T10:31:33;19.65;;;14.93;;
64842;SDS011;51310;52.198;5.422;2022-08-19T10:33:59;26.80;;;16.70;;
64842;SDS011;51310;52.198;5.422;2022-08-19T10:36:31;22.98;;;16.13;;
64842;SDS011;51310;52.198;5.422;2022-08-19T10:39:02;21.42;;;14.30;;
64842;SDS011;51310;52.198;5.422;2022-08-19T10:41:34;20.77;;;14.75;;
64842;SDS011;51310;52.198;5.422;2022-08-19T10:44:05;20.20;;;13.68;;
64842;SDS011;51310;52.198;5.422;2022-08-19T10:46:37;18.80;;;12.90;;
64842;SDS011;51310;52.198;5.422;2022-08-19T10:49:10;18.52;;;12.32;;
64842;SDS011;51310;52.198;5.422;2022-08-19T10:51:37;22.92;;;14.40;;
64842;SDS011;51310;52.198;5.422;2022-08-19T10:54:23;23.00;;;15.00;;
64842;SDS011;51310;52.198;5.422;2022-08-19T10:57:10;21.23;;;13.32;;
64842;SDS011;51310;52.198;5.422;2022-08-19T10:59:36;21.38;;;15.32;;
64842;SDS011;51310;52.198;5.422;2022-08-19T11:02:04;22.05;;;15.05;;
64842;SDS011;51310;52.198;5.422;2022-08-19T11:04:35;27.43;;;15.70;;
64842;SDS011;51310;52.198;5.422;2022-08-19T11:07:03;20.25;;;15.13;;
64842;SDS011;51310;52.198;5.422;2022-08-19T11:09:31;26.65;;;16.17;;
64842;SDS011;51310;52.198;5.422;2022-08-19T11:12:05;22.60;;;16.52;;
64842;SDS011;51310;52.198;5.422;2022-08-19T11:14:33;25.60;;;16.10;;
64842;SDS011;51310;52.198;5.422;2022-08-19T11:17:00;23.42;;;15.25;;
64842;SDS011;51310;52.198;5.422;2022-08-19T11:19:29;24.35;;;16.05;;
64842;SDS011;51310;52.198;5.422;2022-08-19T11:21:55;28.02;;;17.63;;
64842;SDS011;51310;52.198;5.422;2022-08-19T11:24:23;25.77;;;16.70;;
64842;SDS011;51310;52.198;5.422;2022-08-19T11:26:53;26.23;;;16.20;;
64842;SDS011;51310;52.198;5.422;2022-08-19T11:29:27;23.30;;;15.27;;
64842;SDS011;51310;52.198;5.422;2022-08-19T11:31:54;22.25;;;15.75;;
64842;SDS011;51310;52.198;5.422;2022-08-19T11:34:21;22.38;;;15.40;;
64842;SDS011;51310;52.198;5.422;2022-08-19T11:36:52;22.70;;;15.23;;
64842;SDS011;51310;52.198;5.422;2022-08-19T11:39:23;22.75;;;16.20;;
64842;SDS011;51310;52.198;5.422;2022-08-19T11:41:53;21.77;;;15.82;;
64842;SDS011;51310;52.198;5.422;2022-08-19T11:44:19;19.33;;;14.00;;
64842;SDS011;51310;52.198;5.422;2022-08-19T11:46:46;21.50;;;14.52;;
64842;SDS011;51310;52.198;5.422;2022-08-19T11:49:12;22.92;;;15.23;;
64842;SDS011;51310;52.198;5.422;2022-08-19T11:51:41;24.48;;;16.38;;
64842;SDS011;51310;52.198;5.422;2022-08-19T11:54:08;23.27;;;15.88;;
64842;SDS011;51310;52.198;5.422;2022-08-19T11:56:36;26.35;;;16.02;;
64842;SDS011;51310;52.198;5.422;2022-08-19T11:59:03;25.50;;;15.55;;
64842;SDS011;51310;52.198;5.422;2022-08-19T12:01:29;24.63;;;16.00;;
64842;SDS011;51310;52.198;5.422;2022-08-19T12:03:56;21.73;;;15.00;;
64842;SDS011;51310;52.198;5.422;2022-08-19T12:06:27;23.00;;;14.60;;
64842;SDS011;51310;52.198;5.422;2022-08-19T12:09:00;22.77;;;16.48;;
64842;SDS011;51310;52.198;5.422;2022-08-19T12:11:32;24.37;;;15.93;;
64842;SDS011;51310;52.198;5.422;2022-08-19T12:13:58;26.95;;;17.52;;
64842;SDS011;51310;52.198;5.422;2022-08-19T12:16:25;26.45;;;17.20;;
64842;SDS011;51310;52.198;5.422;2022-08-19T12:18:55;29.70;;;18.27;;
64842;SDS011;51310;52.198;5.422;2022-08-19T12:21:23;26.40;;;17.83;;
64842;SDS011;51310;52.198;5.422;2022-08-19T12:23:55;27.65;;;17.70;;
64842;SDS011;51310;52.198;5.422;2022-08-19T12:26:24;24.95;;;17.67;;
64842;SDS011;51310;52.198;5.422;2022-08-19T12:28:53;37.63;;;23.13;;
64842;SDS011;51310;52.198;5.422;2022-08-19T12:31:20;38.17;;;23.85;;
64842;SDS011;51310;52.198;5.422;2022-08-19T12:33:46;38.92;;;28.52;;
64842;SDS011;51310;52.198;5.422;2022-08-19T12:36:13;47.78;;;30.33;;
64842;SDS011;51310;52.198;5.422;2022-08-19T12:38:42;52.35;;;32.28;;
64842;SDS011;51310;52.198;5.422;2022-08-19T12:41:10;55.15;;;33.50;;
64842;SDS011;51310;52.198;5.422;2022-08-19T12:43:40;58.65;;;33.65;;
64842;SDS011;51310;52.198;5.422;2022-08-19T12:46:07;53.58;;;33.28;;
64842;SDS011;51310;52.198;5.422;2022-08-19T12:48:35;49.72;;;31.88;;
64842;SDS011;51310;52.198;5.422;2022-08-19T12:51:07;47.50;;;29.48;;
64842;SDS011;51310;52.198;5.422;2022-08-19T12:53:39;43.42;;;27.30;;
64842;SDS011;51310;52.198;5.422;2022-08-19T12:56:07;34.45;;;22.65;;
64842;SDS011;51310;52.198;5.422;2022-08-19T12:58:36;30.23;;;19.85;;
64842;SDS011;51310;52.198;5.422;2022-08-19T13:01:09;27.50;;;19.25;;
64842;SDS011;51310;52.198;5.422;2022-08-19T13:03:39;29.63;;;19.77;;
64842;SDS011;51310;52.198;5.422;2022-08-19T13:06:06;22.15;;;16.20;;
64842;SDS011;51310;52.198;5.422;2022-08-19T13:08:34;24.90;;;16.10;;
64842;SDS011;51310;52.198;5.422;2022-08-19T13:11:14;22.88;;;15.13;;
64842;SDS011;51310;52.198;5.422;2022-08-19T13:13:44;21.92;;;14.02;;
64842;SDS011;51310;52.198;5.422;2022-08-19T13:16:13;17.80;;;13.20;;
64842;SDS011;51310;52.198;5.422;2022-08-19T13:18:41;16.83;;;12.85;;
64842;SDS011;51310;52.198;5.422;2022-08-19T13:21:12;20.77;;;15.13;;
64842;SDS011;51310;52.198;5.422;2022-08-19T13:23:39;21.10;;;15.57;;
64842;SDS011;51310;52.198;5.422;2022-08-19T13:26:06;17.27;;;14.38;;
64842;SDS011;51310;52.198;5.422;2022-08-19T13:28:35;21.83;;;15.50;;
64842;SDS011;51310;52.198;5.422;2022-08-19T13:31:20;17.30;;;14.18;;
64842;SDS011;51310;52.198;5.422;2022-08-19T13:34:08;23.37;;;15.63;;
64842;SDS011;51310;52.198;5.422;2022-08-19T13:36:35;21.27;;;15.95;;
64842;SDS011;51310;52.198;5.422;2022-08-19T13:39:03;23.45;;;17.15;;
64842;SDS011;51310;52.198;5.422;2022-08-19T13:41:32;25.50;;;16.70;;
64842;SDS011;51310;52.198;5.422;2022-08-19T13:43:59;26.08;;;18.45;;
64842;SDS011;51310;52.198;5.422;2022-08-19T13:46:26;24.00;;;17.33;;
64842;SDS011;51310;52.198;5.422;2022-08-19T13:48:54;22.38;;;17.52;;
64842;SDS011;51310;52.198;5.422;2022-08-19T13:51:21;26.13;;;18.40;;
64842;SDS011;51310;52.198;5.422;2022-08-19T13:53:48;22.08;;;16.10;;
64842;SDS011;51310;52.198;5.422;2022-08-19T13:56:15;21.85;;;15.75;;
64842;SDS011;51310;52.198;5.422;2022-08-19T13:58:46;21.80;;;15.02;;
64842;SDS011;51310;52.198;5.422;2022-08-19T14:01:12;19.65;;;15.30;;
64842;SDS011;51310;52.198;5.422;2022-08-19T14:03:46;20.20;;;16.27;;
64842;SDS011;51310;52.198;5.422;2022-08-19T14:06:12;22.60;;;15.57;;
64842;SDS011;51310;52.198;5.422;2022-08-19T14:08:38;18.57;;;11.40;;
64842;SDS011;51310;52.198;5.422;2022-08-19T14:11:06;16.17;;;10.60;;
64842;SDS011;51310;52.198;5.422;2022-08-19T14:13:33;14.23;;;11.07;;
64842;SDS011;51310;52.198;5.422;2022-08-19T14:16:00;14.55;;;11.60;;
64842;SDS011;51310;52.198;5.422;2022-08-19T14:18:26;18.17;;;12.05;;
64842;SDS011;51310;52.198;5.422;2022-08-19T14:20:52;21.58;;;13.07;;
64842;SDS011;51310;52.198;5.422;2022-08-19T14:23:19;19.17;;;12.05;;
64842;SDS011;51310;52.198;5.422;2022-08-19T14:25:45;17.75;;;12.20;;
64842;SDS011;51310;52.198;5.422;2022-08-19T14:28:11;17.17;;;10.77;;
64842;SDS011;51310;52.198;5.422;2022-08-19T14:30:37;16.77;;;10.60;;
64842;SDS011;51310;52.198;5.422;2022-08-19T14:33:07;14.82;;;9.52;;
64842;SDS011;51310;52.198;5.422;2022-08-19T14:35:33;11.55;;;8.13;;
64842;SDS011;51310;52.198;5.422;2022-08-19T14:38:00;11.97;;;8.00;;
64842;SDS011;51310;52.198;5.422;2022-08-19T14:40:30;12.38;;;8.82;;
64842;SDS011;51310;52.198;5.422;2022-08-19T14:42:59;11.07;;;8.30;;
64842;SDS011;51310;52.198;5.422;2022-08-19T14:45:33;11.63;;;8.10;;
64842;SDS011;51310;52.198;5.422;2022-08-19T14:48:04;13.63;;;8.45;;
64842;SDS011;51310;52.198;5.422;2022-08-19T14:50:34;12.38;;;9.90;;
64842;SDS011;51310;52.198;5.422;2022-08-19T14:53:04;14.27;;;10.55;;
64842;SDS011;51310;52.198;5.422;2022-08-19T14:55:33;15.38;;;10.00;;
64842;SDS011;51310;52.198;5.422;2022-08-19T14:58:00;10.98;;;8.30;;